createdAt,value
2023-03-04T00:01:07.338Z,-3.49
2023-03-04T00:03:40.563Z,-3.51
2023-03-04T00:06:27.354Z,-3.55
2023-03-04T00:09:00.473Z,-3.62
2023-03-04T00:11:47.351Z,-3.63
2023-03-04T00:14:29.363Z,-3.64
2023-03-04T00:17:24.389Z,-3.62
2023-03-04T00:20:11.387Z,-3.64
2023-03-04T00:22:44.492Z,-3.64
2023-03-04T00:25:31.351Z,-3.65
2023-03-04T00:28:04.517Z,-3.69
2023-03-04T00:30:51.361Z,-3.74
2023-03-04T00:33:24.468Z,-3.79
2023-03-04T00:36:11.375Z,-3.79
2023-03-04T00:38:45.523Z,-3.81
2023-03-04T00:41:32.464Z,-3.80
2023-03-04T00:44:12.404Z,-3.82
2023-03-04T00:47:06.368Z,-3.84
2023-03-04T00:49:53.386Z,-3.83
2023-03-04T00:52:26.471Z,-3.82
2023-03-04T00:55:14.339Z,-3.83
2023-03-04T00:57:54.358Z,-3.86
2023-03-04T01:00:48.356Z,-3.85
2023-03-04T01:03:38.367Z,-3.81
2023-03-04T01:06:11.540Z,-3.84
2023-03-04T01:08:58.386Z,-3.82
2023-03-04T01:11:31.469Z,-3.82
2023-03-04T01:14:18.363Z,-3.83
2023-03-04T01:16:52.483Z,-3.84
2023-03-04T01:19:39.355Z,-3.88
2023-03-04T01:22:13.735Z,-3.87
2023-03-04T01:25:00.402Z,-3.84
2023-03-04T01:27:33.440Z,-3.87
2023-03-04T01:30:20.367Z,-3.87
2023-03-04T01:33:00.378Z,-3.89
2023-03-04T01:35:54.428Z,-3.89
2023-03-04T01:38:41.362Z,-3.91
2023-03-04T01:41:14.527Z,-3.92
2023-03-04T01:44:11.385Z,-3.95
2023-03-04T01:47:09.432Z,-3.94
2023-03-04T01:50:01.395Z,-3.91
2023-03-04T01:52:34.459Z,-3.93
2023-03-04T01:55:27.377Z,-3.94
2023-03-04T01:58:08.366Z,-3.91
2023-03-04T02:01:02.388Z,-3.88
2023-03-04T02:03:49.374Z,-3.90
2023-03-04T02:06:22.467Z,-3.89
2023-03-04T02:09:10.421Z,-3.89
2023-03-04T02:11:44.527Z,-3.86
2023-03-04T02:14:31.410Z,-3.87
2023-03-04T02:17:04.492Z,-3.83
2023-03-04T02:20:22.400Z,-3.83
2023-03-04T02:23:19.386Z,-3.80
2023-03-04T02:26:18.378Z,-3.79
2023-03-04T02:29:01.346Z,-3.81
2023-03-04T02:32:01.441Z,-3.78
2023-03-04T02:34:53.386Z,-3.79
2023-03-04T02:37:26.554Z,-3.78
2023-03-04T02:40:21.416Z,-3.75
2023-03-04T02:42:54.529Z,-3.75
2023-03-04T02:45:47.391Z,-3.72
2023-03-04T02:48:25.093Z,-3.70
2023-03-04T02:51:11.394Z,-3.69
2023-03-04T02:53:44.558Z,-3.71
2023-03-04T02:56:31.393Z,-3.69
2023-03-04T02:59:04.483Z,-3.68
2023-03-04T03:01:51.442Z,-3.69
2023-03-04T03:04:33.398Z,-3.70
2023-03-04T03:07:27.413Z,-3.69
2023-03-04T03:10:14.405Z,-3.68
2023-03-04T03:12:47.563Z,-3.69
2023-03-04T03:15:34.411Z,-3.68
2023-03-04T03:18:07.480Z,-3.66
2023-03-04T03:20:54.515Z,-3.64
2023-03-04T03:23:27.507Z,-3.61
2023-03-04T03:26:14.411Z,-3.61
2023-03-04T03:28:47.496Z,-3.58
2023-03-04T03:31:34.458Z,-3.55
2023-03-04T03:34:07.526Z,-3.52
2023-03-04T03:36:54.395Z,-3.54
2023-03-04T03:39:34.418Z,-3.55
2023-03-04T03:42:21.414Z,-3.55
2023-03-04T03:45:13.116Z,-3.56
2023-03-04T03:47:59.421Z,-3.57
2023-03-04T03:50:39.423Z,-3.58
2023-03-04T03:53:33.440Z,-3.56
2023-03-04T03:56:20.430Z,-3.55
2023-03-04T03:58:53.559Z,-3.52
2023-03-04T04:01:40.430Z,-3.48
2023-03-04T04:04:13.522Z,-3.50
2023-03-04T04:07:00.414Z,-3.48
2023-03-04T04:09:40.405Z,-3.46
2023-03-04T04:12:27.419Z,-3.46
2023-03-04T04:15:00.501Z,-3.47
2023-03-04T04:17:47.426Z,-3.47
2023-03-04T04:20:27.431Z,-3.47
2023-03-04T04:23:21.434Z,-3.50
2023-03-04T04:26:08.462Z,-3.52
2023-03-04T04:28:41.603Z,-3.55
2023-03-04T04:31:28.603Z,-3.55
2023-03-04T04:34:01.624Z,-3.58
2023-03-04T04:36:48.421Z,-3.63
2023-03-04T04:39:21.508Z,-3.65
2023-03-04T04:42:08.490Z,-3.69
2023-03-04T04:44:41.568Z,-3.72
2023-03-04T04:47:28.442Z,-3.75
2023-03-04T04:50:01.590Z,-3.76
2023-03-04T04:52:48.436Z,-3.82
2023-03-04T04:55:21.509Z,-3.86
2023-03-04T04:58:08.436Z,-3.87
2023-03-04T05:00:48.423Z,-3.92
2023-03-04T05:03:42.540Z,-3.98
2023-03-04T05:06:37.492Z,-4.04
2023-03-04T05:09:24.455Z,-4.07
2023-03-04T05:12:04.455Z,-4.11
2023-03-04T05:14:58.511Z,-4.13
2023-03-04T05:17:45.455Z,-4.18
2023-03-04T05:20:25.446Z,-4.20
2023-03-04T05:23:12.454Z,-4.21
2023-03-04T05:25:52.448Z,-4.22
2023-03-04T05:28:46.509Z,-4.20
2023-03-04T05:31:40.444Z,-4.20
2023-03-04T05:34:34.431Z,-4.20
2023-03-04T05:37:21.470Z,-4.23
2023-03-04T05:39:54.535Z,-4.25
2023-03-04T05:42:41.475Z,-4.24
2023-03-04T05:45:35.457Z,-4.26
2023-03-04T05:48:22.436Z,-4.26
2023-03-04T05:51:01.674Z,-4.23
2023-03-04T05:53:48.465Z,-4.21
2023-03-04T05:56:31.463Z,-4.20
2023-03-04T05:59:19.174Z,-4.23
2023-03-04T06:01:53.562Z,-4.23
2023-03-04T06:04:40.465Z,-4.24
2023-03-04T06:07:20.474Z,-4.19
2023-03-04T06:10:14.472Z,-4.13
2023-03-04T06:13:08.492Z,-4.05
2023-03-04T06:16:03.516Z,-3.99
2023-03-04T06:18:36.603Z,-3.85
2023-03-04T06:21:23.492Z,-3.70
2023-03-04T06:24:03.458Z,-3.55
2023-03-04T06:26:50.459Z,-3.38
2023-03-04T06:29:30.478Z,-3.20
2023-03-04T06:32:24.540Z,-2.97
2023-03-04T06:35:11.468Z,-2.77
2023-03-04T06:37:44.558Z,-2.59
2023-03-04T06:40:31.538Z,-2.40
2023-03-04T06:43:04.593Z,-2.29
2023-03-04T06:45:51.542Z,-2.14
2023-03-04T06:48:24.576Z,-1.99
2023-03-04T06:51:18.480Z,-1.87
2023-03-04T06:53:52.600Z,-1.72
2023-03-04T06:56:39.477Z,-1.61
2023-03-04T06:59:12.565Z,-1.50
2023-03-04T07:01:59.505Z,-1.39
2023-03-04T07:04:32.561Z,-1.26
2023-03-04T07:07:19.492Z,-1.20
2023-03-04T07:09:59.610Z,-1.21
2023-03-04T07:12:53.471Z,-1.26
2023-03-04T07:15:47.466Z,-1.28
2023-03-04T07:18:41.466Z,-1.28
2023-03-04T07:21:28.487Z,-1.17
2023-03-04T07:24:10.480Z,-0.99
2023-03-04T07:26:57.497Z,-0.76
2023-03-04T07:29:37.487Z,-0.56
2023-03-04T07:32:24.501Z,-0.32
2023-03-04T07:35:04.494Z,-0.16
2023-03-04T07:37:58.481Z,-0.03
2023-03-04T07:40:45.506Z,0.06
2023-03-04T07:43:19.570Z,0.15
2023-03-04T07:46:08.556Z,0.29
2023-03-04T07:48:42.591Z,0.46
2023-03-04T07:51:32.482Z,0.67
2023-03-04T07:54:14.504Z,0.92
2023-03-04T07:57:08.495Z,1.09
2023-03-04T07:59:55.498Z,1.26
2023-03-04T08:02:28.607Z,1.53
2023-03-04T08:05:15.507Z,1.88
2023-03-04T08:07:55.514Z,2.09
2023-03-04T08:10:43.483Z,2.27
2023-03-04T08:13:16.584Z,2.43
2023-03-04T08:16:03.552Z,2.47
2023-03-04T08:18:36.683Z,2.52
2023-03-04T08:21:28.503Z,2.64
2023-03-04T08:24:14.497Z,2.74
2023-03-04T08:27:08.506Z,2.86
2023-03-04T08:30:02.505Z,2.99
2023-03-04T08:32:49.560Z,3.07
2023-03-04T08:35:22.650Z,3.23
2023-03-04T08:38:09.521Z,3.37
2023-03-04T08:40:42.592Z,3.49
2023-03-04T08:43:37.494Z,3.67
2023-03-04T08:46:24.539Z,3.87
2023-03-04T08:49:04.500Z,4.00
2023-03-04T08:51:58.522Z,4.22
2023-03-04T08:54:45.508Z,4.43
2023-03-04T08:57:18.641Z,4.73
2023-03-04T09:00:05.523Z,5.01
2023-03-04T09:02:38.641Z,5.29
2023-03-04T09:05:25.528Z,5.56
2023-03-04T09:08:05.516Z,5.89
2023-03-04T09:11:00.532Z,6.18
2023-03-04T09:13:47.536Z,6.40
2023-03-04T09:16:21.696Z,6.57
2023-03-04T09:19:08.532Z,6.79
2023-03-04T09:21:41.617Z,7.03
2023-03-04T09:24:29.544Z,7.22
2023-03-04T09:27:02.640Z,7.28
2023-03-04T09:29:50.570Z,7.27
2023-03-04T09:32:23.709Z,7.37
2023-03-04T09:35:10.506Z,7.43
2023-03-04T09:37:44.620Z,7.57
2023-03-04T09:40:36.566Z,7.56
2023-03-04T09:43:11.673Z,7.46
2023-03-04T09:46:01.523Z,7.32
2023-03-04T09:48:36.612Z,7.25
2023-03-04T09:51:31.555Z,7.19
2023-03-04T09:54:24.522Z,7.23
2023-03-04T09:57:43.542Z,7.19
2023-03-04T10:00:49.576Z,7.14
2023-03-04T10:04:01.538Z,7.07
2023-03-04T10:06:49.551Z,6.90
2023-03-04T10:09:30.651Z,6.90
2023-03-04T10:12:24.549Z,6.75
2023-03-04T10:15:25.695Z,6.67
2023-03-04T10:18:25.559Z,6.64
2023-03-04T10:21:11.539Z,6.57
2023-03-04T10:24:05.556Z,6.41
2023-03-04T10:26:56.542Z,6.23
2023-03-04T10:29:32.644Z,5.99
2023-03-04T10:32:23.560Z,5.74
2023-03-04T10:34:56.667Z,5.53
2023-03-04T10:37:58.532Z,5.38
2023-03-04T10:40:32.660Z,5.29
2023-03-04T10:43:34.541Z,5.17
2023-03-04T10:46:29.550Z,5.02
2023-03-04T10:49:24.553Z,4.95
2023-03-04T10:52:29.533Z,4.87
2023-03-04T10:55:06.674Z,4.82
2023-03-04T10:58:00.537Z,4.78
2023-03-04T11:00:42.718Z,4.80
2023-03-04T11:03:34.594Z,4.80
2023-03-04T11:06:23.627Z,4.76
2023-03-04T11:09:10.547Z,4.73
2023-03-04T11:11:59.550Z,4.73
2023-03-04T11:14:59.554Z,4.70
2023-03-04T11:17:56.554Z,4.67
2023-03-04T11:20:43.680Z,4.62
2023-03-04T11:23:33.559Z,4.56
2023-03-04T11:26:11.642Z,4.58
2023-03-04T11:29:04.569Z,4.57
2023-03-04T11:31:45.680Z,4.54
2023-03-04T11:34:51.552Z,4.54
2023-03-04T11:37:44.651Z,4.57
2023-03-04T11:41:05.579Z,4.58
2023-03-04T11:43:48.776Z,4.52
2023-03-04T11:46:50.594Z,4.49
2023-03-04T11:49:33.576Z,4.50
2023-03-04T11:52:39.580Z,4.50
2023-03-04T11:55:30.607Z,4.36
2023-03-04T11:58:26.583Z,4.32
2023-03-04T12:01:10.778Z,4.28
2023-03-04T12:04:25.668Z,4.23
2023-03-04T12:07:06.691Z,4.12
2023-03-04T12:10:11.588Z,4.04
2023-03-04T12:13:26.604Z,3.99
2023-03-04T12:16:42.606Z,3.91
2023-03-04T12:19:56.611Z,3.82
2023-03-04T12:22:58.597Z,3.77
2023-03-04T12:25:46.581Z,3.69
2023-03-04T12:28:50.601Z,3.63
2023-03-04T12:31:46.580Z,3.60
2023-03-04T12:35:05.597Z,3.55
2023-03-04T12:37:58.440Z,3.46
2023-03-04T12:40:50.623Z,3.39
2023-03-04T12:43:23.734Z,3.39
2023-03-04T12:46:33.658Z,3.37
2023-03-04T12:49:47.600Z,3.37
2023-03-04T12:53:06.627Z,3.31
2023-03-04T12:56:01.605Z,3.30
2023-03-04T12:58:55.618Z,3.18
2023-03-04T13:01:56.609Z,3.13
2023-03-04T13:04:43.739Z,3.10
2023-03-04T13:08:08.617Z,3.04
2023-03-04T13:10:49.609Z,2.98
2023-03-04T13:13:39.611Z,2.97
2023-03-04T13:16:42.591Z,2.95
2023-03-04T13:19:57.620Z,2.90
2023-03-04T13:22:47.636Z,2.87
2023-03-04T13:25:48.069Z,2.89
2023-03-04T13:28:43.620Z,2.79
2023-03-04T13:31:16.916Z,2.69
2023-03-04T13:34:06.623Z,2.65
2023-03-04T13:36:59.691Z,2.62
2023-03-04T13:39:46.649Z,2.54
2023-03-04T13:42:48.710Z,2.47
2023-03-04T13:45:42.619Z,2.41
2023-03-04T13:48:39.620Z,2.38
2023-03-04T13:51:47.628Z,2.39
2023-03-04T13:54:45.621Z,2.30
2023-03-04T13:57:32.657Z,2.25
2023-03-04T14:00:06.757Z,2.21
2023-03-04T14:02:53.623Z,2.14
2023-03-04T14:05:33.647Z,2.13
2023-03-04T14:08:32.615Z,2.01
2023-03-04T14:11:37.641Z,2.00
2023-03-04T14:14:37.604Z,1.94
2023-03-04T14:17:24.751Z,1.90
2023-03-04T14:20:36.639Z,1.84
2023-03-04T14:23:38.663Z,1.87
2023-03-04T14:26:32.672Z,1.85
2023-03-04T14:29:31.648Z,1.79
2023-03-04T14:32:06.956Z,1.78
2023-03-04T14:34:56.637Z,1.76
2023-03-04T14:37:33.744Z,1.75
2023-03-04T14:40:28.636Z,1.74
2023-03-04T14:43:10.744Z,1.71
2023-03-04T14:46:03.701Z,1.68
2023-03-04T14:48:46.657Z,1.67
2023-03-04T14:52:01.649Z,1.65
2023-03-04T14:54:55.632Z,1.65
2023-03-04T14:57:42.651Z,1.65
2023-03-04T15:00:27.753Z,1.62
2023-03-04T15:03:28.668Z,1.58
2023-03-04T15:06:02.738Z,1.52
2023-03-04T15:08:49.665Z,1.47
2023-03-04T15:11:32.818Z,1.37
2023-03-04T15:14:48.686Z,1.37
2023-03-04T15:17:42.699Z,1.35
2023-03-04T15:20:33.643Z,1.31
2023-03-04T15:23:14.691Z,1.29
2023-03-04T15:26:04.723Z,1.25
2023-03-04T15:28:43.773Z,1.20
2023-03-04T15:31:32.656Z,1.18
2023-03-04T15:34:12.643Z,1.13
2023-03-04T15:37:13.659Z,1.09
2023-03-04T15:40:02.684Z,1.09
2023-03-04T15:42:35.760Z,1.04
2023-03-04T15:45:42.701Z,1.04
2023-03-04T15:48:36.667Z,1.04
2023-03-04T15:51:35.669Z,1.06
2023-03-04T15:54:23.675Z,1.06
2023-03-04T15:57:04.663Z,1.06
2023-03-04T15:59:58.650Z,1.09
2023-03-04T16:02:46.661Z,1.07
2023-03-04T16:05:21.458Z,1.06
2023-03-04T16:08:07.684Z,1.04
2023-03-04T16:10:40.933Z,1.10
2023-03-04T16:13:29.674Z,1.10
2023-03-04T16:16:02.908Z,1.11
2023-03-04T16:18:49.676Z,1.13
2023-03-04T16:21:34.682Z,1.17
2023-03-04T16:24:31.724Z,1.18
2023-03-04T16:27:24.683Z,1.19
2023-03-04T16:29:57.870Z,1.21
2023-03-04T16:32:44.680Z,1.22
2023-03-04T16:35:25.725Z,1.25
2023-03-04T16:38:36.672Z,1.26
2023-03-04T16:41:34.722Z,1.26
2023-03-04T16:44:28.681Z,1.27
2023-03-04T16:47:22.697Z,1.25
2023-03-04T16:50:09.684Z,1.27
2023-03-04T16:52:43.865Z,1.24
2023-03-04T16:55:35.704Z,1.25
2023-03-04T16:58:08.784Z,1.26
2023-03-04T17:00:55.690Z,1.23
2023-03-04T17:03:35.686Z,1.24
2023-03-04T17:06:29.748Z,1.25
2023-03-04T17:09:16.687Z,1.24
2023-03-04T17:11:58.319Z,1.25
2023-03-04T17:14:46.691Z,1.24
2023-03-04T17:17:26.689Z,1.28
2023-03-04T17:20:15.704Z,1.27
2023-03-04T17:22:56.698Z,1.22
2023-03-04T17:25:50.760Z,1.24
2023-03-04T17:28:37.705Z,1.28
2023-03-04T17:31:18.867Z,1.30
2023-03-04T17:34:05.719Z,1.29
2023-03-04T17:36:38.886Z,1.30
2023-03-04T17:39:25.754Z,1.30
2023-03-04T17:41:59.859Z,1.30
2023-03-04T17:44:53.719Z,1.32
2023-03-04T17:47:40.715Z,1.34
2023-03-04T17:50:14.809Z,1.34
2023-03-04T17:53:03.774Z,1.33
2023-03-04T17:55:44.637Z,1.31
2023-03-04T17:58:31.722Z,1.32
2023-03-04T18:01:20.825Z,1.32
2023-03-04T18:04:07.729Z,1.31
2023-03-04T18:06:41.639Z,1.33
2023-03-04T18:09:28.727Z,1.34
2023-03-04T18:12:08.714Z,1.37
2023-03-04T18:15:02.720Z,1.37
2023-03-04T18:17:51.725Z,1.38
2023-03-04T18:20:27.872Z,1.37
2023-03-04T18:23:14.712Z,1.38
2023-03-04T18:25:47.955Z,1.39
2023-03-04T18:28:35.719Z,1.40
2023-03-04T18:31:10.478Z,1.37
2023-03-04T18:33:56.721Z,1.39
2023-03-04T18:36:36.713Z,1.42
2023-03-04T18:39:23.724Z,1.43
2023-03-04T18:41:56.826Z,1.43
2023-03-04T18:44:50.732Z,1.42
2023-03-04T18:47:46.761Z,1.39
2023-03-04T18:50:33.750Z,1.36
2023-03-04T18:53:06.896Z,1.35
2023-03-04T18:55:53.725Z,1.33
2023-03-04T18:58:37.755Z,1.29
2023-03-04T19:01:35.737Z,1.25
2023-03-04T19:04:31.762Z,1.24
2023-03-04T19:07:18.754Z,1.19
2023-03-04T19:09:51.872Z,1.16
2023-03-04T19:12:40.760Z,1.15
2023-03-04T19:15:21.742Z,1.15
2023-03-04T19:18:15.765Z,1.18
2023-03-04T19:21:06.746Z,1.16
2023-03-04T19:23:40.119Z,1.20
2023-03-04T19:26:26.747Z,1.19
2023-03-04T19:28:59.886Z,1.21
2023-03-04T19:31:46.737Z,1.21
2023-03-04T19:34:26.744Z,1.25
2023-03-04T19:37:20.774Z,1.30
2023-03-04T19:40:07.752Z,1.33
2023-03-04T19:42:41.865Z,1.33
2023-03-04T19:45:35.746Z,1.36
2023-03-04T19:48:48.764Z,1.41
2023-03-04T19:51:42.777Z,1.43
2023-03-04T19:54:29.742Z,1.48
2023-03-04T19:57:04.897Z,1.54
2023-03-04T19:59:51.746Z,1.56
2023-03-04T20:02:31.758Z,1.56
2023-03-04T20:05:25.765Z,1.54
2023-03-04T20:08:12.784Z,1.54
2023-03-04T20:10:45.951Z,1.55
2023-03-04T20:13:32.751Z,1.54
2023-03-04T20:16:05.895Z,1.56
2023-03-04T20:18:52.775Z,1.58
2023-03-04T20:21:26.942Z,1.57
2023-03-04T20:24:13.775Z,1.58
2023-03-04T20:26:46.893Z,1.60
2023-03-04T20:29:35.773Z,1.61
2023-03-04T20:32:08.989Z,1.60
2023-03-04T20:35:03.776Z,1.61
2023-03-04T20:37:36.896Z,1.61
2023-03-04T20:40:23.787Z,1.63
2023-03-04T20:43:03.789Z,1.63
2023-03-04T20:46:05.827Z,1.65
2023-03-04T20:48:52.776Z,1.64
2023-03-04T20:51:26.311Z,1.69
2023-03-04T20:54:13.781Z,1.70
2023-03-04T20:56:47.892Z,1.71
2023-03-04T20:59:34.763Z,1.72
2023-03-04T21:02:07.876Z,1.71
2023-03-04T21:04:54.773Z,1.70
2023-03-04T21:07:27.890Z,1.72
2023-03-04T21:10:14.772Z,1.67
2023-03-04T21:12:48.746Z,1.69
2023-03-04T21:15:54.784Z,1.67
2023-03-04T21:18:29.605Z,1.67
2023-03-04T21:21:22.801Z,1.64
2023-03-04T21:24:04.780Z,1.62
2023-03-04T21:26:58.818Z,1.63
2023-03-04T21:29:46.782Z,1.62
2023-03-04T21:32:25.169Z,1.60
2023-03-04T21:35:11.801Z,1.59
2023-03-04T21:37:47.503Z,1.58
2023-03-04T21:40:33.808Z,1.56
2023-03-04T21:43:10.065Z,1.56
2023-03-04T21:46:11.862Z,1.57
2023-03-04T21:49:05.811Z,1.58
2023-03-04T21:51:52.819Z,1.55
2023-03-04T21:54:26.034Z,1.57
2023-03-04T21:57:12.814Z,1.53
2023-03-04T21:59:53.828Z,1.57
2023-03-04T22:02:47.828Z,1.56
2023-03-04T22:05:34.855Z,1.56
2023-03-04T22:08:08.095Z,1.56
2023-03-04T22:10:54.880Z,1.52
2023-03-04T22:13:28.112Z,1.54
2023-03-04T22:16:15.860Z,1.55
2023-03-04T22:18:49.033Z,1.55
2023-03-04T22:21:35.910Z,1.52
2023-03-04T22:24:15.817Z,1.51
2023-03-04T22:27:11.298Z,1.52
2023-03-04T22:29:57.841Z,1.49
2023-03-04T22:32:31.018Z,1.48
2023-03-04T22:35:17.865Z,1.48
2023-03-04T22:37:52.019Z,1.48
2023-03-04T22:40:40.029Z,1.48
2023-03-04T22:43:12.997Z,1.48
2023-03-04T22:46:09.936Z,1.43
2023-03-04T22:49:10.971Z,1.42
2023-03-04T22:51:57.921Z,1.38
2023-03-04T22:54:31.237Z,1.34
2023-03-04T22:57:17.923Z,1.29
2023-03-04T22:59:57.927Z,1.25
2023-03-04T23:02:44.862Z,1.19
2023-03-04T23:05:24.873Z,1.13
2023-03-04T23:08:18.853Z,0.99
2023-03-04T23:11:08.183Z,0.94
2023-03-04T23:13:42.031Z,0.86
2023-03-04T23:16:34.880Z,0.77
2023-03-04T23:19:15.024Z,0.71
2023-03-04T23:22:01.862Z,0.67
2023-03-04T23:24:35.049Z,0.62
2023-03-04T23:27:21.931Z,0.58
2023-03-04T23:30:01.869Z,0.52
2023-03-04T23:32:49.933Z,0.51
2023-03-04T23:35:23.076Z,0.50
2023-03-04T23:38:09.873Z,0.46
2023-03-04T23:40:43.002Z,0.46
2023-03-04T23:43:29.975Z,0.44
2023-03-04T23:46:12.047Z,0.41
2023-03-04T23:49:06.899Z,0.43
2023-03-04T23:51:56.915Z,0.41
2023-03-04T23:54:31.092Z,0.39
2023-03-04T23:57:17.931Z,0.39
2023-03-04T23:59:57.944Z,0.38
